| time (UTC) | temp C | wind direction | speed KPH | gust KPH | rain 1hr cm | rain 24hr cm | rain mn cm | humidity % | barometer mb |
| 20260506023026 | 23 | 296 | 4.8 | 12.9 | 0.00 | 0.00 | 0.00 | 74 | 1008.0 |
| 20260506020023 | 23 | 39 | 3.2 | 9.7 | 0.00 | 0.00 | 0.00 | 73 | 1007.5 |
| 20260506013025 | 24 | 342 | 4.8 | 12.9 | 0.00 | 0.00 | 0.00 | 72 | 1006.8 |
| 20260506010024 | 26 | 338 | 4.8 | 17.7 | 0.00 | 0.00 | 0.00 | 70 | 1006.5 |
| 20260506003026 | 27 | 15 | 1.6 | 9.7 | 0.00 | 0.00 | 0.00 | 66 | 1006.3 |
| 20260506000028 | 29 | 303 | 0.0 | 9.7 | 0.00 | 0.00 | 0.00 | 63 | 1006.0 |
| 20260505233024 | 29 | 121 | 4.8 | 11.3 | 0.00 | 0.00 | 0.00 | 73 | 1005.2 |
| 20260505230028 | 30 | 158 | 3.2 | 11.3 | 0.00 | 0.00 | 0.00 | 71 | 1005.0 |
| 20260505223024 | 31 | 195 | 1.6 | 12.9 | 0.00 | 0.00 | 0.00 | 67 | 1004.6 |
| 20260505220025 | 33 | 231 | 3.2 | 11.3 | 0.00 | 0.00 | 0.00 | 63 | 1004.8 |
| 20260505213026 | 32 | 269 | 3.2 | 12.9 | 0.00 | 0.00 | 0.00 | 59 | 1004.8 |
| 20260505210026 | 31 | 220 | 1.6 | 19.3 | 0.00 | 0.00 | 0.00 | 64 | 1005.2 |
| 20260505203022 | 31 | 230 | 4.8 | 20.9 | 0.00 | 0.00 | 0.00 | 66 | 1005.8 |
| 20260505200028 | 30 | 246 | 9.7 | 20.9 | 0.00 | 0.00 | 0.00 | 66 | 1005.9 |
| 20260505193028 | 30 | 251 | 6.4 | 20.9 | 0.00 | 0.00 | 0.00 | 68 | 1005.9 |
| 20260505190027 | 28 | 250 | 6.4 | 17.7 | 0.00 | 0.00 | 0.00 | 71 | 1006.0 |
| 20260505183025 | 28 | 205 | 4.8 | 19.3 | 0.00 | 0.00 | 0.00 | 71 | 1006.1 |
| 20260505180022 | 28 | 309 | 9.7 | 25.7 | 0.00 | 0.00 | 0.00 | 70 | 1006.1 |
| 20260505173026 | 28 | 82 | 9.7 | 22.5 | 0.00 | 0.00 | 0.00 | 72 | 1006.2 |
| 20260505170025 | 27 | 210 | 8.0 | 25.7 | 0.00 | 0.00 | 0.00 | 73 | 1006.3 |
| 20260505163023 | 27 | 304 | 9.7 | 27.4 | 0.00 | 0.00 | 0.00 | 74 | 1006.2 |
| 20260505153024 | 25 | 250 | 8.0 | 24.1 | 0.00 | 0.00 | 0.00 | 79 | 1006.2 |
| 20260505123023 | 22 | 216 | 4.8 | 17.7 | 0.00 | 0.00 | 0.00 | 87 | 1005.6 |
| 20260505120027 | 21 | 143 | 6.4 | 14.5 | 0.00 | 0.00 | 0.00 | 87 | 1005.4 |
| 20260505113027 | 21 | 248 | 6.4 | 17.7 | 0.00 | 0.00 | 0.00 | 86 | 1005.2 |
| 20260505100025 | 21 | 150 | 6.4 | 17.7 | 0.00 | 0.00 | 0.00 | 86 | 1005.3 |
| 20260505093024 | 21 | 194 | 6.4 | 19.3 | 0.00 | 0.00 | 0.00 | 86 | 1005.5 |
| 20260505090022 | 21 | 219 | 4.8 | 17.7 | 0.00 | 0.00 | 0.00 | 86 | 1005.6 |
| 20260505083020 | 21 | 186 | 8.0 | 30.6 | 0.00 | 0.00 | 0.00 | 86 | 1005.7 |
| 20260505080026 | 21 | 335 | 11.3 | 19.3 | 0.00 | 0.00 | 0.00 | 85 | 1005.7 |
| 20260505073026 | 22 | 224 | 4.8 | 24.1 | 0.00 | 0.00 | 0.00 | 84 | 1006.2 |
| 20260505070025 | 22 | 176 | 8.0 | 22.5 | 0.00 | 0.00 | 0.00 | 83 | 1006.6 |
| 20260505063026 | 22 | 236 | 9.7 | 27.4 | 0.00 | 0.00 | 0.00 | 83 | 1006.7 |
| 20260505060027 | 22 | 191 | 3.2 | 20.9 | 0.00 | 0.00 | 0.00 | 81 | 1007.1 |
| 20260505053027 | 22 | 143 | 3.2 | 12.9 | 0.00 | 0.00 | 0.00 | 80 | 1007.4 |
| 20260505040024 | 22 | 148 | 4.8 | 14.5 | 0.00 | 0.00 | 0.00 | 77 | 1007.7 |
| 20260505033027 | 23 | 158 | 4.8 | 17.7 | 0.00 | 0.00 | 0.00 | 76 | 1007.8 |
| 20260505030022 | 23 | 76 | 1.6 | 11.3 | 0.00 | 0.00 | 0.00 | 75 | 1007.6 |